sensor_id;sensor_type;location;lat;lon;timestamp;temperature;humidity
57636;DHT22;43465;50.728;4.160;2023-03-14T00:00:48;10.80;99.90
57636;DHT22;43465;50.728;4.160;2023-03-14T00:03:13;10.80;99.90
57636;DHT22;43465;50.728;4.160;2023-03-14T00:05:39;10.70;99.90
57636;DHT22;43465;50.728;4.160;2023-03-14T00:08:05;10.60;99.90
57636;DHT22;43465;50.728;4.160;2023-03-14T00:10:30;10.60;99.90
57636;DHT22;43465;50.728;4.160;2023-03-14T00:12:56;10.60;99.90
57636;DHT22;43465;50.728;4.160;2023-03-14T00:15:22;10.60;99.90
57636;DHT22;43465;50.728;4.160;2023-03-14T00:17:47;10.60;99.90
57636;DHT22;43465;50.728;4.160;2023-03-14T00:20:13;10.50;99.90
57636;DHT22;43465;50.728;4.160;2023-03-14T00:22:39;10.50;99.90
57636;DHT22;43465;50.728;4.160;2023-03-14T00:25:05;10.50;99.90
57636;DHT22;43465;50.728;4.160;2023-03-14T00:27:32;10.40;99.90
57636;DHT22;43465;50.728;4.160;2023-03-14T00:29:58;10.40;99.90
57636;DHT22;43465;50.728;4.160;2023-03-14T00:32:23;10.40;99.90
57636;DHT22;43465;50.728;4.160;2023-03-14T00:34:49;10.30;99.90
57636;DHT22;43465;50.728;4.160;2023-03-14T00:37:15;10.40;99.90
57636;DHT22;43465;50.728;4.160;2023-03-14T00:39:41;10.40;99.90
57636;DHT22;43465;50.728;4.160;2023-03-14T00:42:07;10.50;99.90
57636;DHT22;43465;50.728;4.160;2023-03-14T00:44:33;10.50;99.90
57636;DHT22;43465;50.728;4.160;2023-03-14T00:46:58;10.50;99.90
57636;DHT22;43465;50.728;4.160;2023-03-14T00:49:24;10.50;99.90
57636;DHT22;43465;50.728;4.160;2023-03-14T00:51:50;10.50;99.90
57636;DHT22;43465;50.728;4.160;2023-03-14T00:54:17;10.50;99.90
57636;DHT22;43465;50.728;4.160;2023-03-14T00:56:43;10.50;99.90
57636;DHT22;43465;50.728;4.160;2023-03-14T00:59:08;10.50;99.90
57636;DHT22;43465;50.728;4.160;2023-03-14T01:01:34;10.50;99.90
57636;DHT22;43465;50.728;4.160;2023-03-14T01:04:00;10.50;99.90
57636;DHT22;43465;50.728;4.160;2023-03-14T01:06:28;10.50;99.90
57636;DHT22;43465;50.728;4.160;2023-03-14T01:08:55;10.60;99.90
57636;DHT22;43465;50.728;4.160;2023-03-14T01:11:26;10.60;99.90
57636;DHT22;43465;50.728;4.160;2023-03-14T01:13:52;10.60;99.90
57636;DHT22;43465;50.728;4.160;2023-03-14T01:16:20;10.60;99.90
57636;DHT22;43465;50.728;4.160;2023-03-14T01:18:46;10.50;99.90
57636;DHT22;43465;50.728;4.160;2023-03-14T01:21:18;10.50;99.90
57636;DHT22;43465;50.728;4.160;2023-03-14T01:23:44;10.50;99.90
57636;DHT22;43465;50.728;4.160;2023-03-14T01:26:16;10.40;99.90
57636;DHT22;43465;50.728;4.160;2023-03-14T01:28:45;10.40;99.90
57636;DHT22;43465;50.728;4.160;2023-03-14T01:31:11;10.40;99.90
57636;DHT22;43465;50.728;4.160;2023-03-14T01:33:37;10.30;99.90
57636;DHT22;43465;50.728;4.160;2023-03-14T01:36:04;10.30;99.90
57636;DHT22;43465;50.728;4.160;2023-03-14T01:38:31;10.20;99.90
57636;DHT22;43465;50.728;4.160;2023-03-14T01:40:57;10.10;99.90
57636;DHT22;43465;50.728;4.160;2023-03-14T01:43:24;10.00;99.90
57636;DHT22;43465;50.728;4.160;2023-03-14T01:53:57;9.80;99.90
57636;DHT22;43465;50.728;4.160;2023-03-14T01:56:25;9.80;99.90
57636;DHT22;43465;50.728;4.160;2023-03-14T01:58:52;9.90;99.90
57636;DHT22;43465;50.728;4.160;2023-03-14T02:01:20;9.90;99.90
57636;DHT22;43465;50.728;4.160;2023-03-14T02:03:53;9.90;99.90
57636;DHT22;43465;50.728;4.160;2023-03-14T02:06:24;9.80;99.90
57636;DHT22;43465;50.728;4.160;2023-03-14T02:08:51;9.80;99.90
57636;DHT22;43465;50.728;4.160;2023-03-14T02:11:17;9.90;99.90
57636;DHT22;43465;50.728;4.160;2023-03-14T02:13:44;10.00;99.90
57636;DHT22;43465;50.728;4.160;2023-03-14T02:16:10;10.00;99.90
57636;DHT22;43465;50.728;4.160;2023-03-14T02:18:36;10.00;99.90
57636;DHT22;43465;50.728;4.160;2023-03-14T02:21:31;10.00;99.90
57636;DHT22;43465;50.728;4.160;2023-03-14T02:27:03;10.10;99.90
57636;DHT22;43465;50.728;4.160;2023-03-14T02:29:31;10.20;99.90
57636;DHT22;43465;50.728;4.160;2023-03-14T02:31:58;10.10;99.90
57636;DHT22;43465;50.728;4.160;2023-03-14T02:34:26;10.20;99.90
57636;DHT22;43465;50.728;4.160;2023-03-14T02:36:52;10.20;99.90
57636;DHT22;43465;50.728;4.160;2023-03-14T02:39:26;10.20;99.90
57636;DHT22;43465;50.728;4.160;2023-03-14T02:41:53;10.10;99.90
57636;DHT22;43465;50.728;4.160;2023-03-14T02:44:19;10.10;99.90
57636;DHT22;43465;50.728;4.160;2023-03-14T02:46:44;10.20;99.90
57636;DHT22;43465;50.728;4.160;2023-03-14T02:49:14;10.30;99.90
57636;DHT22;43465;50.728;4.160;2023-03-14T02:51:43;10.20;99.90
57636;DHT22;43465;50.728;4.160;2023-03-14T02:54:10;10.20;99.90
57636;DHT22;43465;50.728;4.160;2023-03-14T02:56:36;10.30;99.90
57636;DHT22;43465;50.728;4.160;2023-03-14T02:59:06;10.40;99.90
57636;DHT22;43465;50.728;4.160;2023-03-14T03:01:33;10.40;99.90
57636;DHT22;43465;50.728;4.160;2023-03-14T03:03:59;10.30;99.90
57636;DHT22;43465;50.728;4.160;2023-03-14T03:06:25;10.40;99.90
57636;DHT22;43465;50.728;4.160;2023-03-14T03:08:51;10.40;99.90
57636;DHT22;43465;50.728;4.160;2023-03-14T03:11:17;10.40;99.90
57636;DHT22;43465;50.728;4.160;2023-03-14T03:13:42;10.40;99.90
57636;DHT22;43465;50.728;4.160;2023-03-14T03:16:08;10.30;99.90
57636;DHT22;43465;50.728;4.160;2023-03-14T03:18:34;10.30;99.90
57636;DHT22;43465;50.728;4.160;2023-03-14T03:21:01;10.40;99.90
57636;DHT22;43465;50.728;4.160;2023-03-14T03:23:27;10.40;99.90
57636;DHT22;43465;50.728;4.160;2023-03-14T03:25:53;10.40;99.90
57636;DHT22;43465;50.728;4.160;2023-03-14T03:28:19;10.40;99.90
57636;DHT22;43465;50.728;4.160;2023-03-14T03:30:45;10.40;99.90
57636;DHT22;43465;50.728;4.160;2023-03-14T03:33:11;10.40;99.90
57636;DHT22;43465;50.728;4.160;2023-03-14T03:35:48;10.30;99.90
57636;DHT22;43465;50.728;4.160;2023-03-14T03:38:15;10.30;99.90
57636;DHT22;43465;50.728;4.160;2023-03-14T03:40:41;10.30;99.90
57636;DHT22;43465;50.728;4.160;2023-03-14T03:43:06;10.30;99.90
57636;DHT22;43465;50.728;4.160;2023-03-14T03:45:32;10.30;99.90
57636;DHT22;43465;50.728;4.160;2023-03-14T03:47:58;10.30;99.90
57636;DHT22;43465;50.728;4.160;2023-03-14T03:50:23;10.40;99.90
57636;DHT22;43465;50.728;4.160;2023-03-14T03:52:49;10.30;99.90
57636;DHT22;43465;50.728;4.160;2023-03-14T03:55:15;10.40;99.90
57636;DHT22;43465;50.728;4.160;2023-03-14T03:57:40;10.30;99.90
57636;DHT22;43465;50.728;4.160;2023-03-14T04:00:07;10.30;99.90
57636;DHT22;43465;50.728;4.160;2023-03-14T04:02:34;10.30;99.90
57636;DHT22;43465;50.728;4.160;2023-03-14T04:05:00;10.30;99.90
57636;DHT22;43465;50.728;4.160;2023-03-14T04:07:26;10.30;99.90
57636;DHT22;43465;50.728;4.160;2023-03-14T04:09:51;10.30;99.90
57636;DHT22;43465;50.728;4.160;2023-03-14T04:12:17;10.30;99.90
57636;DHT22;43465;50.728;4.160;2023-03-14T04:14:42;10.30;99.90
57636;DHT22;43465;50.728;4.160;2023-03-14T04:17:09;10.20;99.90
57636;DHT22;43465;50.728;4.160;2023-03-14T04:19:34;10.30;99.90
57636;DHT22;43465;50.728;4.160;2023-03-14T04:22:00;10.30;99.90
57636;DHT22;43465;50.728;4.160;2023-03-14T04:24:25;10.30;99.90
57636;DHT22;43465;50.728;4.160;2023-03-14T04:26:51;10.30;99.90
57636;DHT22;43465;50.728;4.160;2023-03-14T04:29:17;10.40;99.90
57636;DHT22;43465;50.728;4.160;2023-03-14T04:31:43;10.40;99.90
57636;DHT22;43465;50.728;4.160;2023-03-14T04:34:09;10.30;99.90
57636;DHT22;43465;50.728;4.160;2023-03-14T04:36:34;10.30;99.90
57636;DHT22;43465;50.728;4.160;2023-03-14T04:39:00;10.30;99.90
57636;DHT22;43465;50.728;4.160;2023-03-14T04:41:26;10.30;99.90
57636;DHT22;43465;50.728;4.160;2023-03-14T04:43:51;10.30;99.90
57636;DHT22;43465;50.728;4.160;2023-03-14T04:46:17;10.30;99.90
57636;DHT22;43465;50.728;4.160;2023-03-14T04:48:42;10.30;99.90
57636;DHT22;43465;50.728;4.160;2023-03-14T04:51:08;10.40;99.90
57636;DHT22;43465;50.728;4.160;2023-03-14T04:53:34;10.40;99.90
57636;DHT22;43465;50.728;4.160;2023-03-14T04:56:01;10.40;99.90
57636;DHT22;43465;50.728;4.160;2023-03-14T04:58:26;10.40;99.90
57636;DHT22;43465;50.728;4.160;2023-03-14T05:00:52;10.40;99.90
57636;DHT22;43465;50.728;4.160;2023-03-14T05:03:18;10.30;99.90
57636;DHT22;43465;50.728;4.160;2023-03-14T05:05:44;10.40;99.90
57636;DHT22;43465;50.728;4.160;2023-03-14T05:08:10;10.40;99.90
57636;DHT22;43465;50.728;4.160;2023-03-14T05:10:36;10.40;99.90
57636;DHT22;43465;50.728;4.160;2023-03-14T05:13:02;10.40;99.90
57636;DHT22;43465;50.728;4.160;2023-03-14T05:15:28;10.30;99.90
57636;DHT22;43465;50.728;4.160;2023-03-14T05:17:53;10.30;99.90
57636;DHT22;43465;50.728;4.160;2023-03-14T05:20:22;10.30;99.90
57636;DHT22;43465;50.728;4.160;2023-03-14T05:22:47;10.30;99.90
57636;DHT22;43465;50.728;4.160;2023-03-14T05:25:13;10.30;99.90
57636;DHT22;43465;50.728;4.160;2023-03-14T05:27:39;10.30;99.90
57636;DHT22;43465;50.728;4.160;2023-03-14T05:30:05;10.30;99.90
57636;DHT22;43465;50.728;4.160;2023-03-14T05:32:32;10.30;99.90
57636;DHT22;43465;50.728;4.160;2023-03-14T05:34:57;10.40;99.90
57636;DHT22;43465;50.728;4.160;2023-03-14T05:37:25;10.30;99.90
57636;DHT22;43465;50.728;4.160;2023-03-14T05:39:51;10.40;99.90
57636;DHT22;43465;50.728;4.160;2023-03-14T05:42:17;10.40;99.90
57636;DHT22;43465;50.728;4.160;2023-03-14T05:44:43;10.40;99.90
57636;DHT22;43465;50.728;4.160;2023-03-14T05:47:08;10.40;99.90
57636;DHT22;43465;50.728;4.160;2023-03-14T05:49:34;10.40;99.90
57636;DHT22;43465;50.728;4.160;2023-03-14T05:51:59;10.40;99.90
57636;DHT22;43465;50.728;4.160;2023-03-14T05:54:25;10.50;99.90
57636;DHT22;43465;50.728;4.160;2023-03-14T05:56:51;10.50;99.90
57636;DHT22;43465;50.728;4.160;2023-03-14T05:59:16;10.50;99.90
57636;DHT22;43465;50.728;4.160;2023-03-14T06:01:42;10.50;99.90
57636;DHT22;43465;50.728;4.160;2023-03-14T06:04:08;10.50;99.90
57636;DHT22;43465;50.728;4.160;2023-03-14T06:06:33;10.50;99.90
57636;DHT22;43465;50.728;4.160;2023-03-14T06:08:59;10.50;99.90
57636;DHT22;43465;50.728;4.160;2023-03-14T06:11:25;10.40;99.90
57636;DHT22;43465;50.728;4.160;2023-03-14T06:13:51;10.40;99.90
57636;DHT22;43465;50.728;4.160;2023-03-14T06:16:16;10.40;99.90
57636;DHT22;43465;50.728;4.160;2023-03-14T06:18:42;10.40;99.90
57636;DHT22;43465;50.728;4.160;2023-03-14T06:21:08;10.40;99.90
57636;DHT22;43465;50.728;4.160;2023-03-14T06:23:34;10.40;99.90
57636;DHT22;43465;50.728;4.160;2023-03-14T06:25:59;10.30;99.90
57636;DHT22;43465;50.728;4.160;2023-03-14T06:28:25;10.30;99.90
57636;DHT22;43465;50.728;4.160;2023-03-14T06:30:51;10.30;99.90
57636;DHT22;43465;50.728;4.160;2023-03-14T06:33:16;10.20;99.90
57636;DHT22;43465;50.728;4.160;2023-03-14T06:35:42;10.20;99.90
57636;DHT22;43465;50.728;4.160;2023-03-14T06:38:07;10.20;99.90
57636;DHT22;43465;50.728;4.160;2023-03-14T06:40:33;10.20;99.90
57636;DHT22;43465;50.728;4.160;2023-03-14T06:42:59;9.80;99.90
57636;DHT22;43465;50.728;4.160;2023-03-14T06:45:24;9.20;99.90
57636;DHT22;43465;50.728;4.160;2023-03-14T06:47:50;8.80;99.90
57636;DHT22;43465;50.728;4.160;2023-03-14T06:50:16;8.50;99.90
57636;DHT22;43465;50.728;4.160;2023-03-14T06:52:41;8.30;99.90
57636;DHT22;43465;50.728;4.160;2023-03-14T06:55:13;8.10;99.90
57636;DHT22;43465;50.728;4.160;2023-03-14T06:57:39;7.90;99.90
57636;DHT22;43465;50.728;4.160;2023-03-14T07:00:05;7.80;99.90
57636;DHT22;43465;50.728;4.160;2023-03-14T07:02:31;7.60;99.90
57636;DHT22;43465;50.728;4.160;2023-03-14T07:04:57;7.50;99.90
57636;DHT22;43465;50.728;4.160;2023-03-14T07:07:23;7.40;99.90
57636;DHT22;43465;50.728;4.160;2023-03-14T07:09:48;7.30;99.90
57636;DHT22;43465;50.728;4.160;2023-03-14T07:12:14;7.20;99.90
57636;DHT22;43465;50.728;4.160;2023-03-14T07:14:40;7.20;99.90
57636;DHT22;43465;50.728;4.160;2023-03-14T07:17:05;7.20;99.90
57636;DHT22;43465;50.728;4.160;2023-03-14T07:19:31;7.20;99.90
57636;DHT22;43465;50.728;4.160;2023-03-14T07:21:57;7.20;99.90
57636;DHT22;43465;50.728;4.160;2023-03-14T07:24:22;7.30;99.90
57636;DHT22;43465;50.728;4.160;2023-03-14T07:26:48;7.30;99.90
57636;DHT22;43465;50.728;4.160;2023-03-14T07:29:14;7.30;99.90
57636;DHT22;43465;50.728;4.160;2023-03-14T07:31:39;7.20;99.90
57636;DHT22;43465;50.728;4.160;2023-03-14T07:34:05;7.20;99.90
57636;DHT22;43465;50.728;4.160;2023-03-14T07:36:31;7.20;99.90
57636;DHT22;43465;50.728;4.160;2023-03-14T07:38:57;7.30;99.90
57636;DHT22;43465;50.728;4.160;2023-03-14T07:41:23;7.30;99.90
57636;DHT22;43465;50.728;4.160;2023-03-14T07:43:49;7.30;99.90
57636;DHT22;43465;50.728;4.160;2023-03-14T07:46:15;7.40;99.90
57636;DHT22;43465;50.728;4.160;2023-03-14T07:48:41;7.40;99.90
57636;DHT22;43465;50.728;4.160;2023-03-14T07:51:07;7.50;99.90
57636;DHT22;43465;50.728;4.160;2023-03-14T07:53:32;7.50;99.90
57636;DHT22;43465;50.728;4.160;2023-03-14T07:55:58;7.50;99.90
57636;DHT22;43465;50.728;4.160;2023-03-14T07:58:24;7.50;99.90
57636;DHT22;43465;50.728;4.160;2023-03-14T08:00:50;7.40;99.90
57636;DHT22;43465;50.728;4.160;2023-03-14T08:03:17;7.30;99.90
57636;DHT22;43465;50.728;4.160;2023-03-14T08:05:43;7.30;99.90
57636;DHT22;43465;50.728;4.160;2023-03-14T08:08:09;7.30;99.90
57636;DHT22;43465;50.728;4.160;2023-03-14T08:10:38;7.30;99.90
57636;DHT22;43465;50.728;4.160;2023-03-14T08:13:04;7.30;99.90
57636;DHT22;43465;50.728;4.160;2023-03-14T08:15:30;7.20;99.90
57636;DHT22;43465;50.728;4.160;2023-03-14T08:17:57;7.30;99.90
57636;DHT22;43465;50.728;4.160;2023-03-14T08:20:26;7.20;99.90
57636;DHT22;43465;50.728;4.160;2023-03-14T08:22:52;7.20;99.90
57636;DHT22;43465;50.728;4.160;2023-03-14T08:25:18;7.20;99.90
57636;DHT22;43465;50.728;4.160;2023-03-14T08:27:44;7.10;99.90
57636;DHT22;43465;50.728;4.160;2023-03-14T08:30:12;7.10;99.90
57636;DHT22;43465;50.728;4.160;2023-03-14T08:32:38;7.00;99.90
57636;DHT22;43465;50.728;4.160;2023-03-14T08:35:05;6.90;99.90
57636;DHT22;43465;50.728;4.160;2023-03-14T08:37:34;6.80;99.90
57636;DHT22;43465;50.728;4.160;2023-03-14T08:40:01;6.80;99.90
57636;DHT22;43465;50.728;4.160;2023-03-14T08:42:30;6.80;99.90
57636;DHT22;43465;50.728;4.160;2023-03-14T08:44:55;6.80;99.90
57636;DHT22;43465;50.728;4.160;2023-03-14T08:47:21;6.80;99.90
57636;DHT22;43465;50.728;4.160;2023-03-14T08:49:47;6.70;99.90
57636;DHT22;43465;50.728;4.160;2023-03-14T08:52:12;6.70;99.90
57636;DHT22;43465;50.728;4.160;2023-03-14T08:54:38;6.80;99.90
57636;DHT22;43465;50.728;4.160;2023-03-14T08:57:04;6.80;99.90
57636;DHT22;43465;50.728;4.160;2023-03-14T08:59:29;6.80;99.90
57636;DHT22;43465;50.728;4.160;2023-03-14T09:01:55;6.90;99.90
57636;DHT22;43465;50.728;4.160;2023-03-14T09:04:20;6.80;99.90
57636;DHT22;43465;50.728;4.160;2023-03-14T09:06:47;6.80;99.90
57636;DHT22;43465;50.728;4.160;2023-03-14T09:09:12;6.80;99.90
57636;DHT22;43465;50.728;4.160;2023-03-14T09:11:39;6.80;99.90
57636;DHT22;43465;50.728;4.160;2023-03-14T09:14:05;6.80;99.90
57636;DHT22;43465;50.728;4.160;2023-03-14T09:16:33;6.90;99.90
57636;DHT22;43465;50.728;4.160;2023-03-14T09:18:58;7.00;99.90
57636;DHT22;43465;50.728;4.160;2023-03-14T09:21:26;7.20;99.90
57636;DHT22;43465;50.728;4.160;2023-03-14T09:23:52;7.20;99.90
57636;DHT22;43465;50.728;4.160;2023-03-14T09:26:18;7.20;99.90
57636;DHT22;43465;50.728;4.160;2023-03-14T09:28:44;7.20;99.90
57636;DHT22;43465;50.728;4.160;2023-03-14T09:31:11;7.30;99.90
57636;DHT22;43465;50.728;4.160;2023-03-14T09:33:37;7.30;99.90
57636;DHT22;43465;50.728;4.160;2023-03-14T09:36:04;7.40;99.90
57636;DHT22;43465;50.728;4.160;2023-03-14T09:38:31;7.40;99.90
57636;DHT22;43465;50.728;4.160;2023-03-14T09:40:59;7.40;99.90
57636;DHT22;43465;50.728;4.160;2023-03-14T09:43:27;7.50;99.90
57636;DHT22;43465;50.728;4.160;2023-03-14T09:45:54;7.50;99.90
57636;DHT22;43465;50.728;4.160;2023-03-14T09:48:22;7.70;99.90
57636;DHT22;43465;50.728;4.160;2023-03-14T09:50:53;7.80;99.90
57636;DHT22;43465;50.728;4.160;2023-03-14T09:53:23;7.80;99.90
57636;DHT22;43465;50.728;4.160;2023-03-14T09:55:51;7.80;99.90
57636;DHT22;43465;50.728;4.160;2023-03-14T09:58:22;7.90;99.90
57636;DHT22;43465;50.728;4.160;2023-03-14T10:00:55;7.90;99.90
57636;DHT22;43465;50.728;4.160;2023-03-14T10:03:22;7.90;99.90
57636;DHT22;43465;50.728;4.160;2023-03-14T10:05:48;8.00;99.90
57636;DHT22;43465;50.728;4.160;2023-03-14T10:08:14;8.10;99.90
57636;DHT22;43465;50.728;4.160;2023-03-14T10:10:40;8.10;99.90
57636;DHT22;43465;50.728;4.160;2023-03-14T10:16:07;8.10;99.90
57636;DHT22;43465;50.728;4.160;2023-03-14T10:18:33;8.20;99.90
57636;DHT22;43465;50.728;4.160;2023-03-14T10:21:28;8.30;99.90
57636;DHT22;43465;50.728;4.160;2023-03-14T10:23:54;8.40;99.90
57636;DHT22;43465;50.728;4.160;2023-03-14T10:26:27;8.30;99.90
57636;DHT22;43465;50.728;4.160;2023-03-14T10:29:01;8.20;99.90
57636;DHT22;43465;50.728;4.160;2023-03-14T10:31:28;8.10;99.90
57636;DHT22;43465;50.728;4.160;2023-03-14T10:34:02;8.10;99.90
57636;DHT22;43465;50.728;4.160;2023-03-14T10:36:30;8.00;99.90
57636;DHT22;43465;50.728;4.160;2023-03-14T10:42:05;8.00;99.90
57636;DHT22;43465;50.728;4.160;2023-03-14T10:44:36;8.10;99.90
57636;DHT22;43465;50.728;4.160;2023-03-14T10:47:04;8.30;99.90
57636;DHT22;43465;50.728;4.160;2023-03-14T10:49:32;8.20;99.90
57636;DHT22;43465;50.728;4.160;2023-03-14T10:52:34;8.10;99.90
57636;DHT22;43465;50.728;4.160;2023-03-14T10:55:03;8.10;99.90
57636;DHT22;43465;50.728;4.160;2023-03-14T10:57:29;8.00;99.90
57636;DHT22;43465;50.728;4.160;2023-03-14T10:59:56;7.90;99.90
57636;DHT22;43465;50.728;4.160;2023-03-14T11:08:31;8.00;99.90
57636;DHT22;43465;50.728;4.160;2023-03-14T11:11:22;8.00;99.90
57636;DHT22;43465;50.728;4.160;2023-03-14T11:16:39;8.00;99.90
57636;DHT22;43465;50.728;4.160;2023-03-14T11:30:04;7.60;99.90
57636;DHT22;43465;50.728;4.160;2023-03-14T11:35:30;7.60;99.90
57636;DHT22;43465;50.728;4.160;2023-03-14T11:40:34;7.40;99.90
57636;DHT22;43465;50.728;4.160;2023-03-14T11:43:10;7.20;99.90
57636;DHT22;43465;50.728;4.160;2023-03-14T11:45:39;7.10;99.90
57636;DHT22;43465;50.728;4.160;2023-03-14T11:48:21;6.90;99.90
57636;DHT22;43465;50.728;4.160;2023-03-14T11:50:53;6.80;99.90
57636;DHT22;43465;50.728;4.160;2023-03-14T11:53:39;6.70;99.90
57636;DHT22;43465;50.728;4.160;2023-03-14T11:56:24;6.60;99.90
57636;DHT22;43465;50.728;4.160;2023-03-14T11:59:01;6.60;99.90
57636;DHT22;43465;50.728;4.160;2023-03-14T12:01:36;6.50;99.90
57636;DHT22;43465;50.728;4.160;2023-03-14T12:04:29;6.50;99.90
57636;DHT22;43465;50.728;4.160;2023-03-14T12:06:57;6.40;99.90
57636;DHT22;43465;50.728;4.160;2023-03-14T12:09:25;6.20;99.90
57636;DHT22;43465;50.728;4.160;2023-03-14T12:12:03;6.10;99.90
57636;DHT22;43465;50.728;4.160;2023-03-14T12:14:33;5.90;99.90
57636;DHT22;43465;50.728;4.160;2023-03-14T12:17:05;5.90;99.90
57636;DHT22;43465;50.728;4.160;2023-03-14T12:19:37;5.80;99.90
57636;DHT22;43465;50.728;4.160;2023-03-14T12:24:35;5.60;99.90
57636;DHT22;43465;50.728;4.160;2023-03-14T12:27:03;5.50;99.90
57636;DHT22;43465;50.728;4.160;2023-03-14T12:29:30;5.60;99.90
57636;DHT22;43465;50.728;4.160;2023-03-14T12:32:28;5.60;99.90
57636;DHT22;43465;50.728;4.160;2023-03-14T12:34:54;5.70;99.90
57636;DHT22;43465;50.728;4.160;2023-03-14T12:43:04;5.80;99.90
57636;DHT22;43465;50.728;4.160;2023-03-14T12:48:29;6.00;99.90
57636;DHT22;43465;50.728;4.160;2023-03-14T12:51:02;6.00;99.90
57636;DHT22;43465;50.728;4.160;2023-03-14T13:01:05;5.90;99.90
57636;DHT22;43465;50.728;4.160;2023-03-14T13:03:52;5.90;99.90
57636;DHT22;43465;50.728;4.160;2023-03-14T13:12:18;6.10;99.90
57636;DHT22;43465;50.728;4.160;2023-03-14T13:14:49;6.10;99.90
57636;DHT22;43465;50.728;4.160;2023-03-14T13:17:24;6.20;99.90
57636;DHT22;43465;50.728;4.160;2023-03-14T13:19:55;6.20;99.90
57636;DHT22;43465;50.728;4.160;2023-03-14T13:22:27;6.40;99.90
57636;DHT22;43465;50.728;4.160;2023-03-14T13:25:05;6.30;99.90
57636;DHT22;43465;50.728;4.160;2023-03-14T13:27:33;6.30;99.90
57636;DHT22;43465;50.728;4.160;2023-03-14T13:30:12;6.10;99.90
57636;DHT22;43465;50.728;4.160;2023-03-14T13:32:42;5.80;99.90
57636;DHT22;43465;50.728;4.160;2023-03-14T13:35:45;5.70;99.90
57636;DHT22;43465;50.728;4.160;2023-03-14T13:38:20;5.60;99.90
57636;DHT22;43465;50.728;4.160;2023-03-14T13:40:46;5.50;99.90
57636;DHT22;43465;50.728;4.160;2023-03-14T13:43:23;5.50;99.90
57636;DHT22;43465;50.728;4.160;2023-03-14T13:45:51;5.50;99.90
57636;DHT22;43465;50.728;4.160;2023-03-14T13:48:18;5.50;99.90
57636;DHT22;43465;50.728;4.160;2023-03-14T13:50:51;5.60;99.90
57636;DHT22;43465;50.728;4.160;2023-03-14T13:53:18;5.50;99.90
57636;DHT22;43465;50.728;4.160;2023-03-14T13:55:44;5.60;99.90
57636;DHT22;43465;50.728;4.160;2023-03-14T13:58:19;5.70;99.90
57636;DHT22;43465;50.728;4.160;2023-03-14T14:00:57;5.70;99.90
57636;DHT22;43465;50.728;4.160;2023-03-14T14:03:24;5.60;99.90
57636;DHT22;43465;50.728;4.160;2023-03-14T14:05:49;5.50;99.90
57636;DHT22;43465;50.728;4.160;2023-03-14T14:08:15;5.20;99.90
57636;DHT22;43465;50.728;4.160;2023-03-14T14:10:41;4.90;99.90
57636;DHT22;43465;50.728;4.160;2023-03-14T14:13:10;4.80;99.90
57636;DHT22;43465;50.728;4.160;2023-03-14T14:15:44;4.90;99.90
57636;DHT22;43465;50.728;4.160;2023-03-14T14:18:14;4.90;99.90
57636;DHT22;43465;50.728;4.160;2023-03-14T14:20:46;5.10;99.90
57636;DHT22;43465;50.728;4.160;2023-03-14T14:23:20;5.30;99.90
57636;DHT22;43465;50.728;4.160;2023-03-14T14:25:51;5.60;99.90
57636;DHT22;43465;50.728;4.160;2023-03-14T14:33:43;5.90;99.90
57636;DHT22;43465;50.728;4.160;2023-03-14T14:36:21;5.90;99.90
57636;DHT22;43465;50.728;4.160;2023-03-14T14:39:20;6.10;99.90
57636;DHT22;43465;50.728;4.160;2023-03-14T14:41:51;6.20;99.90
57636;DHT22;43465;50.728;4.160;2023-03-14T14:44:28;6.30;99.90
57636;DHT22;43465;50.728;4.160;2023-03-14T14:46:55;6.30;99.90
57636;DHT22;43465;50.728;4.160;2023-03-14T14:49:29;6.00;99.90
57636;DHT22;43465;50.728;4.160;2023-03-14T14:52:04;5.80;99.90
57636;DHT22;43465;50.728;4.160;2023-03-14T14:54:38;5.60;99.90
57636;DHT22;43465;50.728;4.160;2023-03-14T14:57:18;5.40;99.90
57636;DHT22;43465;50.728;4.160;2023-03-14T14:59:44;5.30;99.90
57636;DHT22;43465;50.728;4.160;2023-03-14T15:02:28;5.20;99.90
57636;DHT22;43465;50.728;4.160;2023-03-14T15:04:54;5.00;99.90
57636;DHT22;43465;50.728;4.160;2023-03-14T15:07:19;4.90;99.90
57636;DHT22;43465;50.728;4.160;2023-03-14T15:09:45;4.80;99.90
57636;DHT22;43465;50.728;4.160;2023-03-14T15:12:11;4.70;99.90
57636;DHT22;43465;50.728;4.160;2023-03-14T15:14:37;4.80;99.90
57636;DHT22;43465;50.728;4.160;2023-03-14T15:17:03;4.90;99.90
57636;DHT22;43465;50.728;4.160;2023-03-14T15:19:28;5.10;99.90
57636;DHT22;43465;50.728;4.160;2023-03-14T15:21:58;5.30;99.90
57636;DHT22;43465;50.728;4.160;2023-03-14T15:24:24;5.50;99.90
57636;DHT22;43465;50.728;4.160;2023-03-14T15:26:50;5.70;99.90
57636;DHT22;43465;50.728;4.160;2023-03-14T15:29:16;5.80;99.90
57636;DHT22;43465;50.728;4.160;2023-03-14T15:31:43;5.90;99.90
57636;DHT22;43465;50.728;4.160;2023-03-14T15:34:09;6.00;99.90
57636;DHT22;43465;50.728;4.160;2023-03-14T15:36:36;6.20;99.90
57636;DHT22;43465;50.728;4.160;2023-03-14T15:39:04;6.30;99.90
57636;DHT22;43465;50.728;4.160;2023-03-14T15:41:31;6.40;99.90
57636;DHT22;43465;50.728;4.160;2023-03-14T15:43:57;6.50;99.90
57636;DHT22;43465;50.728;4.160;2023-03-14T15:46:23;6.50;99.90
57636;DHT22;43465;50.728;4.160;2023-03-14T15:48:50;6.60;99.90
57636;DHT22;43465;50.728;4.160;2023-03-14T15:51:17;6.60;99.90
57636;DHT22;43465;50.728;4.160;2023-03-14T15:53:43;6.60;99.90
57636;DHT22;43465;50.728;4.160;2023-03-14T15:56:15;6.60;99.90
57636;DHT22;43465;50.728;4.160;2023-03-14T15:58:41;6.70;99.90
57636;DHT22;43465;50.728;4.160;2023-03-14T16:01:12;6.70;99.90
57636;DHT22;43465;50.728;4.160;2023-03-14T16:03:38;6.70;99.90
57636;DHT22;43465;50.728;4.160;2023-03-14T16:06:04;6.80;99.90
57636;DHT22;43465;50.728;4.160;2023-03-14T16:08:30;6.80;99.90
57636;DHT22;43465;50.728;4.160;2023-03-14T16:10:58;6.80;99.90
57636;DHT22;43465;50.728;4.160;2023-03-14T16:13:24;6.80;99.90
57636;DHT22;43465;50.728;4.160;2023-03-14T16:15:59;6.70;99.90
57636;DHT22;43465;50.728;4.160;2023-03-14T16:18:31;6.70;99.90
57636;DHT22;43465;50.728;4.160;2023-03-14T16:20:59;6.60;99.90
57636;DHT22;43465;50.728;4.160;2023-03-14T16:23:26;6.60;99.90
57636;DHT22;43465;50.728;4.160;2023-03-14T16:25:53;6.60;99.90
57636;DHT22;43465;50.728;4.160;2023-03-14T16:28:25;6.50;99.90
57636;DHT22;43465;50.728;4.160;2023-03-14T16:30:52;6.50;99.90
57636;DHT22;43465;50.728;4.160;2023-03-14T16:33:18;6.40;99.90
57636;DHT22;43465;50.728;4.160;2023-03-14T16:35:56;6.30;99.90
57636;DHT22;43465;50.728;4.160;2023-03-14T16:38:23;6.30;99.90
57636;DHT22;43465;50.728;4.160;2023-03-14T16:41:03;6.20;99.90
57636;DHT22;43465;50.728;4.160;2023-03-14T16:43:30;6.00;99.90
57636;DHT22;43465;50.728;4.160;2023-03-14T16:45:59;6.00;99.90
57636;DHT22;43465;50.728;4.160;2023-03-14T16:48:28;6.00;99.90
57636;DHT22;43465;50.728;4.160;2023-03-14T16:50:55;6.10;99.90
57636;DHT22;43465;50.728;4.160;2023-03-14T16:53:21;6.10;99.90
57636;DHT22;43465;50.728;4.160;2023-03-14T16:55:48;6.00;99.90
57636;DHT22;43465;50.728;4.160;2023-03-14T16:58:14;6.00;99.90